sensor_id;sensor_type;location;lat;lon;timestamp;P1;durP1;ratioP1;P2;durP2;ratioP2
34497;SDS011;20744;50.938;7.286;2024-01-15T00:01:10;50.17;;;21.50;;
34497;SDS011;20744;50.938;7.286;2024-01-15T00:03:37;53.08;;;21.95;;
34497;SDS011;20744;50.938;7.286;2024-01-15T00:06:05;61.72;;;22.10;;
34497;SDS011;20744;50.938;7.286;2024-01-15T00:08:33;50.88;;;21.15;;
34497;SDS011;20744;50.938;7.286;2024-01-15T00:11:01;52.72;;;21.13;;
34497;SDS011;20744;50.938;7.286;2024-01-15T00:13:28;48.70;;;22.08;;
34497;SDS011;20744;50.938;7.286;2024-01-15T00:15:55;55.08;;;22.45;;
34497;SDS011;20744;50.938;7.286;2024-01-15T00:18:22;53.38;;;21.73;;
34497;SDS011;20744;50.938;7.286;2024-01-15T00:20:50;48.33;;;21.40;;
34497;SDS011;20744;50.938;7.286;2024-01-15T00:23:17;51.08;;;20.58;;
34497;SDS011;20744;50.938;7.286;2024-01-15T00:25:45;51.58;;;22.27;;
34497;SDS011;20744;50.938;7.286;2024-01-15T00:28:12;49.88;;;21.95;;
34497;SDS011;20744;50.938;7.286;2024-01-15T00:30:40;53.28;;;21.30;;
34497;SDS011;20744;50.938;7.286;2024-01-15T00:33:07;49.30;;;21.55;;
34497;SDS011;20744;50.938;7.286;2024-01-15T00:35:37;46.65;;;22.33;;
34497;SDS011;20744;50.938;7.286;2024-01-15T00:38:04;55.83;;;22.63;;
34497;SDS011;20744;50.938;7.286;2024-01-15T00:40:32;57.38;;;23.73;;
34497;SDS011;20744;50.938;7.286;2024-01-15T00:43:01;55.30;;;23.88;;
34497;SDS011;20744;50.938;7.286;2024-01-15T00:45:28;58.72;;;23.60;;
34497;SDS011;20744;50.938;7.286;2024-01-15T00:47:56;63.78;;;25.35;;
34497;SDS011;20744;50.938;7.286;2024-01-15T00:50:24;63.70;;;25.38;;
34497;SDS011;20744;50.938;7.286;2024-01-15T00:52:51;60.95;;;24.08;;
34497;SDS011;20744;50.938;7.286;2024-01-15T00:55:19;61.85;;;24.83;;
34497;SDS011;20744;50.938;7.286;2024-01-15T00:57:46;62.95;;;25.70;;
34497;SDS011;20744;50.938;7.286;2024-01-15T01:00:15;57.88;;;24.73;;
34497;SDS011;20744;50.938;7.286;2024-01-15T01:02:42;62.03;;;24.77;;
34497;SDS011;20744;50.938;7.286;2024-01-15T01:05:10;54.22;;;23.60;;
34497;SDS011;20744;50.938;7.286;2024-01-15T01:07:37;55.90;;;23.30;;
34497;SDS011;20744;50.938;7.286;2024-01-15T01:10:05;63.53;;;25.00;;
34497;SDS011;20744;50.938;7.286;2024-01-15T01:12:32;58.42;;;24.45;;
34497;SDS011;20744;50.938;7.286;2024-01-15T01:14:59;61.60;;;26.40;;
34497;SDS011;20744;50.938;7.286;2024-01-15T01:17:28;62.13;;;26.90;;
34497;SDS011;20744;50.938;7.286;2024-01-15T01:19:56;59.03;;;25.95;;
34497;SDS011;20744;50.938;7.286;2024-01-15T01:22:23;66.93;;;27.65;;
34497;SDS011;20744;50.938;7.286;2024-01-15T01:24:51;60.67;;;26.90;;
34497;SDS011;20744;50.938;7.286;2024-01-15T01:27:18;72.18;;;29.52;;
34497;SDS011;20744;50.938;7.286;2024-01-15T01:29:45;62.97;;;26.00;;
34497;SDS011;20744;50.938;7.286;2024-01-15T01:32:12;75.80;;;29.30;;
34497;SDS011;20744;50.938;7.286;2024-01-15T01:34:41;66.65;;;27.55;;
34497;SDS011;20744;50.938;7.286;2024-01-15T01:37:08;64.30;;;27.13;;
34497;SDS011;20744;50.938;7.286;2024-01-15T01:39:37;65.88;;;27.35;;
34497;SDS011;20744;50.938;7.286;2024-01-15T01:42:05;67.63;;;28.10;;
34497;SDS011;20744;50.938;7.286;2024-01-15T01:44:32;64.63;;;27.35;;
34497;SDS011;20744;50.938;7.286;2024-01-15T01:46:59;71.93;;;28.52;;
34497;SDS011;20744;50.938;7.286;2024-01-15T01:49:28;66.18;;;26.27;;
34497;SDS011;20744;50.938;7.286;2024-01-15T01:51:57;74.65;;;28.60;;
34497;SDS011;20744;50.938;7.286;2024-01-15T01:54:25;65.03;;;28.15;;
34497;SDS011;20744;50.938;7.286;2024-01-15T01:56:53;68.75;;;27.00;;
34497;SDS011;20744;50.938;7.286;2024-01-15T01:59:20;65.47;;;26.90;;
34497;SDS011;20744;50.938;7.286;2024-01-15T02:01:49;58.92;;;25.17;;
34497;SDS011;20744;50.938;7.286;2024-01-15T02:04:17;68.10;;;27.80;;
34497;SDS011;20744;50.938;7.286;2024-01-15T02:06:44;61.17;;;25.80;;
34497;SDS011;20744;50.938;7.286;2024-01-15T02:09:13;63.45;;;25.58;;
34497;SDS011;20744;50.938;7.286;2024-01-15T02:11:41;58.83;;;24.52;;
34497;SDS011;20744;50.938;7.286;2024-01-15T02:14:08;62.78;;;26.35;;
34497;SDS011;20744;50.938;7.286;2024-01-15T02:16:36;58.70;;;25.08;;
34497;SDS011;20744;50.938;7.286;2024-01-15T02:19:03;70.85;;;27.35;;
34497;SDS011;20744;50.938;7.286;2024-01-15T02:21:31;65.65;;;26.52;;
34497;SDS011;20744;50.938;7.286;2024-01-15T02:23:59;61.28;;;27.20;;
34497;SDS011;20744;50.938;7.286;2024-01-15T02:26:27;69.53;;;27.65;;
34497;SDS011;20744;50.938;7.286;2024-01-15T02:28:54;69.30;;;26.75;;
34497;SDS011;20744;50.938;7.286;2024-01-15T02:31:22;61.85;;;25.85;;
34497;SDS011;20744;50.938;7.286;2024-01-15T02:33:49;64.15;;;27.25;;
34497;SDS011;20744;50.938;7.286;2024-01-15T02:36:16;62.33;;;26.20;;
34497;SDS011;20744;50.938;7.286;2024-01-15T02:38:43;70.32;;;27.50;;
34497;SDS011;20744;50.938;7.286;2024-01-15T02:41:12;70.50;;;28.05;;
34497;SDS011;20744;50.938;7.286;2024-01-15T02:43:40;67.30;;;28.27;;
34497;SDS011;20744;50.938;7.286;2024-01-15T02:46:07;65.38;;;27.63;;
34497;SDS011;20744;50.938;7.286;2024-01-15T02:48:34;67.18;;;27.52;;
34497;SDS011;20744;50.938;7.286;2024-01-15T02:51:02;71.53;;;27.55;;
34497;SDS011;20744;50.938;7.286;2024-01-15T02:53:29;64.82;;;26.52;;
34497;SDS011;20744;50.938;7.286;2024-01-15T02:55:57;70.15;;;27.25;;
34497;SDS011;20744;50.938;7.286;2024-01-15T02:58:25;64.03;;;25.77;;
34497;SDS011;20744;50.938;7.286;2024-01-15T03:00:52;59.42;;;24.95;;
34497;SDS011;20744;50.938;7.286;2024-01-15T03:03:20;69.68;;;25.77;;
34497;SDS011;20744;50.938;7.286;2024-01-15T03:05:47;61.53;;;24.85;;
34497;SDS011;20744;50.938;7.286;2024-01-15T03:08:14;65.72;;;26.60;;
34497;SDS011;20744;50.938;7.286;2024-01-15T03:10:42;68.93;;;25.30;;
34497;SDS011;20744;50.938;7.286;2024-01-15T03:13:09;63.85;;;26.25;;
34497;SDS011;20744;50.938;7.286;2024-01-15T03:15:39;58.00;;;25.77;;
34497;SDS011;20744;50.938;7.286;2024-01-15T03:18:06;62.70;;;24.70;;
34497;SDS011;20744;50.938;7.286;2024-01-15T03:20:34;62.50;;;24.98;;
34497;SDS011;20744;50.938;7.286;2024-01-15T03:23:01;58.42;;;24.33;;
34497;SDS011;20744;50.938;7.286;2024-01-15T03:25:28;62.22;;;25.13;;
34497;SDS011;20744;50.938;7.286;2024-01-15T03:27:56;62.60;;;25.73;;
34497;SDS011;20744;50.938;7.286;2024-01-15T03:30:23;55.38;;;25.05;;
34497;SDS011;20744;50.938;7.286;2024-01-15T03:32:52;58.42;;;23.83;;
34497;SDS011;20744;50.938;7.286;2024-01-15T03:35:19;64.03;;;24.52;;
34497;SDS011;20744;50.938;7.286;2024-01-15T03:37:46;56.88;;;24.27;;
34497;SDS011;20744;50.938;7.286;2024-01-15T03:40:14;56.90;;;23.25;;
34497;SDS011;20744;50.938;7.286;2024-01-15T03:42:41;57.67;;;24.27;;
34497;SDS011;20744;50.938;7.286;2024-01-15T03:45:08;58.13;;;23.60;;
34497;SDS011;20744;50.938;7.286;2024-01-15T03:47:36;60.15;;;24.75;;
34497;SDS011;20744;50.938;7.286;2024-01-15T03:50:05;60.17;;;24.73;;
34497;SDS011;20744;50.938;7.286;2024-01-15T03:52:32;54.08;;;23.77;;
34497;SDS011;20744;50.938;7.286;2024-01-15T03:54:59;51.95;;;22.95;;
34497;SDS011;20744;50.938;7.286;2024-01-15T03:57:27;59.50;;;24.02;;
34497;SDS011;20744;50.938;7.286;2024-01-15T03:59:54;54.67;;;23.88;;
34497;SDS011;20744;50.938;7.286;2024-01-15T04:02:21;56.33;;;24.02;;
34497;SDS011;20744;50.938;7.286;2024-01-15T04:04:49;50.75;;;23.27;;
34497;SDS011;20744;50.938;7.286;2024-01-15T04:07:18;47.88;;;23.05;;
34497;SDS011;20744;50.938;7.286;2024-01-15T04:09:45;58.03;;;24.13;;
34497;SDS011;20744;50.938;7.286;2024-01-15T04:12:12;49.38;;;23.67;;
34497;SDS011;20744;50.938;7.286;2024-01-15T04:14:39;52.00;;;23.67;;
34497;SDS011;20744;50.938;7.286;2024-01-15T04:17:07;54.58;;;22.67;;
34497;SDS011;20744;50.938;7.286;2024-01-15T04:19:34;51.70;;;23.92;;
34497;SDS011;20744;50.938;7.286;2024-01-15T04:22:01;50.80;;;23.95;;
34497;SDS011;20744;50.938;7.286;2024-01-15T04:24:32;51.47;;;24.08;;
34497;SDS011;20744;50.938;7.286;2024-01-15T04:26:59;54.25;;;24.00;;
34497;SDS011;20744;50.938;7.286;2024-01-15T04:29:26;53.55;;;24.45;;
34497;SDS011;20744;50.938;7.286;2024-01-15T04:31:54;53.35;;;24.55;;
34497;SDS011;20744;50.938;7.286;2024-01-15T04:34:21;56.90;;;24.45;;
34497;SDS011;20744;50.938;7.286;2024-01-15T04:36:48;54.80;;;25.35;;
34497;SDS011;20744;50.938;7.286;2024-01-15T04:39:16;52.40;;;24.73;;
34497;SDS011;20744;50.938;7.286;2024-01-15T04:41:44;53.95;;;23.75;;
34497;SDS011;20744;50.938;7.286;2024-01-15T04:44:11;55.80;;;24.70;;
34497;SDS011;20744;50.938;7.286;2024-01-15T04:46:39;52.28;;;24.55;;
34497;SDS011;20744;50.938;7.286;2024-01-15T04:49:08;53.20;;;24.52;;
34497;SDS011;20744;50.938;7.286;2024-01-15T04:51:36;52.72;;;24.70;;
34497;SDS011;20744;50.938;7.286;2024-01-15T04:54:03;51.20;;;25.25;;
34497;SDS011;20744;50.938;7.286;2024-01-15T04:56:30;50.58;;;24.58;;
34497;SDS011;20744;50.938;7.286;2024-01-15T04:58:59;54.08;;;25.15;;
34497;SDS011;20744;50.938;7.286;2024-01-15T05:01:30;62.97;;;25.48;;
34497;SDS011;20744;50.938;7.286;2024-01-15T05:03:57;54.10;;;24.65;;
34497;SDS011;20744;50.938;7.286;2024-01-15T05:06:24;60.67;;;24.10;;
34497;SDS011;20744;50.938;7.286;2024-01-15T05:08:52;59.13;;;25.08;;
34497;SDS011;20744;50.938;7.286;2024-01-15T05:11:22;53.03;;;24.08;;
34497;SDS011;20744;50.938;7.286;2024-01-15T05:13:50;50.50;;;23.58;;
34497;SDS011;20744;50.938;7.286;2024-01-15T05:16:18;50.63;;;23.48;;
34497;SDS011;20744;50.938;7.286;2024-01-15T05:18:46;52.90;;;23.38;;
34497;SDS011;20744;50.938;7.286;2024-01-15T05:21:13;54.03;;;23.27;;
34497;SDS011;20744;50.938;7.286;2024-01-15T05:23:40;55.20;;;23.50;;
34497;SDS011;20744;50.938;7.286;2024-01-15T05:26:07;50.88;;;22.45;;
34497;SDS011;20744;50.938;7.286;2024-01-15T05:28:35;49.88;;;22.83;;
34497;SDS011;20744;50.938;7.286;2024-01-15T05:31:02;55.72;;;23.55;;
34497;SDS011;20744;50.938;7.286;2024-01-15T05:33:31;51.70;;;22.85;;
34497;SDS011;20744;50.938;7.286;2024-01-15T05:35:58;50.30;;;23.13;;
34497;SDS011;20744;50.938;7.286;2024-01-15T05:38:26;48.30;;;22.52;;
34497;SDS011;20744;50.938;7.286;2024-01-15T05:40:53;50.22;;;22.67;;
34497;SDS011;20744;50.938;7.286;2024-01-15T05:43:20;49.95;;;22.15;;
34497;SDS011;20744;50.938;7.286;2024-01-15T05:45:47;51.22;;;23.25;;
34497;SDS011;20744;50.938;7.286;2024-01-15T05:48:15;49.50;;;22.77;;
34497;SDS011;20744;50.938;7.286;2024-01-15T05:50:44;42.28;;;21.17;;
34497;SDS011;20744;50.938;7.286;2024-01-15T05:53:11;45.42;;;22.25;;
34497;SDS011;20744;50.938;7.286;2024-01-15T05:55:38;45.28;;;20.65;;
34497;SDS011;20744;50.938;7.286;2024-01-15T05:58:05;44.10;;;20.15;;
34497;SDS011;20744;50.938;7.286;2024-01-15T06:00:33;46.40;;;21.20;;
34497;SDS011;20744;50.938;7.286;2024-01-15T06:03:01;49.15;;;21.75;;
34497;SDS011;20744;50.938;7.286;2024-01-15T06:05:27;44.53;;;22.27;;
34497;SDS011;20744;50.938;7.286;2024-01-15T06:07:56;49.30;;;20.33;;
34497;SDS011;20744;50.938;7.286;2024-01-15T06:10:23;46.22;;;20.67;;
34497;SDS011;20744;50.938;7.286;2024-01-15T06:12:50;43.92;;;20.45;;
34497;SDS011;20744;50.938;7.286;2024-01-15T06:15:18;45.42;;;20.60;;
34497;SDS011;20744;50.938;7.286;2024-01-15T06:17:45;38.50;;;19.65;;
34497;SDS011;20744;50.938;7.286;2024-01-15T06:20:12;40.83;;;20.52;;
34497;SDS011;20744;50.938;7.286;2024-01-15T06:22:40;54.17;;;22.15;;
34497;SDS011;20744;50.938;7.286;2024-01-15T06:25:09;44.67;;;20.48;;
34497;SDS011;20744;50.938;7.286;2024-01-15T06:27:36;46.58;;;21.48;;
34497;SDS011;20744;50.938;7.286;2024-01-15T06:30:04;42.08;;;20.85;;
34497;SDS011;20744;50.938;7.286;2024-01-15T06:32:31;41.03;;;20.42;;
34497;SDS011;20744;50.938;7.286;2024-01-15T06:34:59;38.45;;;20.92;;
34497;SDS011;20744;50.938;7.286;2024-01-15T06:37:26;41.42;;;21.10;;
34497;SDS011;20744;50.938;7.286;2024-01-15T06:39:53;42.45;;;21.52;;
34497;SDS011;20744;50.938;7.286;2024-01-15T06:42:22;44.08;;;20.55;;
34497;SDS011;20744;50.938;7.286;2024-01-15T06:44:49;38.88;;;20.88;;
34497;SDS011;20744;50.938;7.286;2024-01-15T06:47:16;45.17;;;19.23;;
34497;SDS011;20744;50.938;7.286;2024-01-15T06:49:44;43.67;;;21.35;;
34497;SDS011;20744;50.938;7.286;2024-01-15T06:52:11;41.90;;;20.63;;
34497;SDS011;20744;50.938;7.286;2024-01-15T06:54:38;44.22;;;21.23;;
34497;SDS011;20744;50.938;7.286;2024-01-15T06:57:05;44.97;;;20.00;;
34497;SDS011;20744;50.938;7.286;2024-01-15T06:59:34;45.00;;;20.55;;
34497;SDS011;20744;50.938;7.286;2024-01-15T07:02:01;41.28;;;19.85;;
34497;SDS011;20744;50.938;7.286;2024-01-15T07:04:29;37.35;;;19.45;;
34497;SDS011;20744;50.938;7.286;2024-01-15T07:06:59;47.05;;;21.60;;
34497;SDS011;20744;50.938;7.286;2024-01-15T07:09:26;49.20;;;20.92;;
34497;SDS011;20744;50.938;7.286;2024-01-15T07:11:54;41.38;;;21.45;;
34497;SDS011;20744;50.938;7.286;2024-01-15T07:14:22;40.13;;;19.95;;
34497;SDS011;20744;50.938;7.286;2024-01-15T07:16:51;39.97;;;19.42;;
34497;SDS011;20744;50.938;7.286;2024-01-15T07:19:18;40.72;;;19.15;;
34497;SDS011;20744;50.938;7.286;2024-01-15T07:21:46;46.97;;;20.90;;
34497;SDS011;20744;50.938;7.286;2024-01-15T07:24:13;40.65;;;20.42;;
34497;SDS011;20744;50.938;7.286;2024-01-15T07:26:40;43.90;;;21.90;;
34497;SDS011;20744;50.938;7.286;2024-01-15T07:29:08;40.03;;;20.08;;
34497;SDS011;20744;50.938;7.286;2024-01-15T07:31:35;42.08;;;20.10;;
34497;SDS011;20744;50.938;7.286;2024-01-15T07:34:03;41.25;;;20.58;;
34497;SDS011;20744;50.938;7.286;2024-01-15T07:36:33;41.72;;;20.63;;
34497;SDS011;20744;50.938;7.286;2024-01-15T07:39:00;34.88;;;19.60;;
34497;SDS011;20744;50.938;7.286;2024-01-15T07:41:27;44.15;;;20.70;;
34497;SDS011;20744;50.938;7.286;2024-01-15T07:43:55;42.38;;;21.52;;
34497;SDS011;20744;50.938;7.286;2024-01-15T07:46:22;37.50;;;20.73;;
34497;SDS011;20744;50.938;7.286;2024-01-15T07:48:50;38.83;;;20.52;;
34497;SDS011;20744;50.938;7.286;2024-01-15T07:51:22;37.83;;;19.92;;
34497;SDS011;20744;50.938;7.286;2024-01-15T07:53:50;36.80;;;19.70;;
34497;SDS011;20744;50.938;7.286;2024-01-15T07:56:17;37.85;;;20.73;;
34497;SDS011;20744;50.938;7.286;2024-01-15T07:58:46;48.60;;;20.55;;
34497;SDS011;20744;50.938;7.286;2024-01-15T08:01:13;43.05;;;20.63;;
34497;SDS011;20744;50.938;7.286;2024-01-15T08:03:41;39.58;;;20.92;;
34497;SDS011;20744;50.938;7.286;2024-01-15T08:06:08;41.33;;;20.95;;
34497;SDS011;20744;50.938;7.286;2024-01-15T08:08:37;44.83;;;22.45;;
34497;SDS011;20744;50.938;7.286;2024-01-15T08:11:04;43.83;;;20.85;;
34497;SDS011;20744;50.938;7.286;2024-01-15T08:13:32;40.78;;;21.48;;
34497;SDS011;20744;50.938;7.286;2024-01-15T08:15:59;46.60;;;22.27;;
34497;SDS011;20744;50.938;7.286;2024-01-15T08:18:27;40.30;;;22.02;;
34497;SDS011;20744;50.938;7.286;2024-01-15T08:20:54;44.55;;;22.15;;
34497;SDS011;20744;50.938;7.286;2024-01-15T08:23:21;46.58;;;22.65;;
34497;SDS011;20744;50.938;7.286;2024-01-15T08:25:51;47.85;;;21.80;;
34497;SDS011;20744;50.938;7.286;2024-01-15T08:28:18;42.83;;;21.73;;
34497;SDS011;20744;50.938;7.286;2024-01-15T08:30:46;44.65;;;20.90;;
34497;SDS011;20744;50.938;7.286;2024-01-15T08:33:13;40.58;;;21.60;;
34497;SDS011;20744;50.938;7.286;2024-01-15T08:35:40;40.30;;;21.17;;
34497;SDS011;20744;50.938;7.286;2024-01-15T08:38:07;46.33;;;22.67;;
34497;SDS011;20744;50.938;7.286;2024-01-15T08:40:35;46.78;;;23.83;;
34497;SDS011;20744;50.938;7.286;2024-01-15T08:43:03;46.63;;;23.58;;
34497;SDS011;20744;50.938;7.286;2024-01-15T08:45:31;53.08;;;23.17;;
34497;SDS011;20744;50.938;7.286;2024-01-15T08:47:59;51.33;;;24.30;;
34497;SDS011;20744;50.938;7.286;2024-01-15T08:50:27;51.75;;;24.27;;
34497;SDS011;20744;50.938;7.286;2024-01-15T08:52:54;46.22;;;24.67;;
34497;SDS011;20744;50.938;7.286;2024-01-15T08:55:22;48.28;;;24.55;;
34497;SDS011;20744;50.938;7.286;2024-01-15T08:57:49;50.55;;;23.58;;
34497;SDS011;20744;50.938;7.286;2024-01-15T09:00:18;48.65;;;24.63;;
34497;SDS011;20744;50.938;7.286;2024-01-15T09:02:46;48.40;;;23.95;;
34497;SDS011;20744;50.938;7.286;2024-01-15T09:05:13;48.97;;;23.35;;
34497;SDS011;20744;50.938;7.286;2024-01-15T09:07:40;49.58;;;23.88;;
34497;SDS011;20744;50.938;7.286;2024-01-15T09:10:08;42.63;;;22.50;;
34497;SDS011;20744;50.938;7.286;2024-01-15T09:12:35;43.70;;;22.40;;
34497;SDS011;20744;50.938;7.286;2024-01-15T09:15:04;43.50;;;21.30;;
34497;SDS011;20744;50.938;7.286;2024-01-15T09:17:34;51.15;;;22.20;;
34497;SDS011;20744;50.938;7.286;2024-01-15T09:20:02;39.47;;;20.75;;
34497;SDS011;20744;50.938;7.286;2024-01-15T09:22:30;53.97;;;23.00;;
34497;SDS011;20744;50.938;7.286;2024-01-15T09:24:58;45.15;;;21.48;;
34497;SDS011;20744;50.938;7.286;2024-01-15T09:27:25;45.05;;;20.83;;
34497;SDS011;20744;50.938;7.286;2024-01-15T09:29:53;41.40;;;21.13;;
34497;SDS011;20744;50.938;7.286;2024-01-15T09:32:20;44.25;;;21.63;;
34497;SDS011;20744;50.938;7.286;2024-01-15T09:34:49;44.08;;;20.50;;
34497;SDS011;20744;50.938;7.286;2024-01-15T09:37:16;43.35;;;22.48;;
34497;SDS011;20744;50.938;7.286;2024-01-15T09:39:44;39.58;;;20.05;;
34497;SDS011;20744;50.938;7.286;2024-01-15T09:42:11;44.28;;;20.42;;
34497;SDS011;20744;50.938;7.286;2024-01-15T09:44:38;40.92;;;21.52;;
34497;SDS011;20744;50.938;7.286;2024-01-15T09:47:06;43.97;;;21.58;;
34497;SDS011;20744;50.938;7.286;2024-01-15T09:49:34;44.35;;;21.80;;
34497;SDS011;20744;50.938;7.286;2024-01-15T09:52:04;44.72;;;21.58;;
34497;SDS011;20744;50.938;7.286;2024-01-15T09:54:32;40.70;;;20.80;;
34497;SDS011;20744;50.938;7.286;2024-01-15T09:57:00;35.78;;;19.15;;
34497;SDS011;20744;50.938;7.286;2024-01-15T09:59:28;30.45;;;17.52;;
34497;SDS011;20744;50.938;7.286;2024-01-15T10:01:55;28.90;;;16.20;;
34497;SDS011;20744;50.938;7.286;2024-01-15T10:04:24;30.88;;;16.23;;
34497;SDS011;20744;50.938;7.286;2024-01-15T10:06:51;31.17;;;15.85;;
34497;SDS011;20744;50.938;7.286;2024-01-15T10:09:20;29.50;;;15.55;;
34497;SDS011;20744;50.938;7.286;2024-01-15T10:11:47;26.17;;;14.80;;
34497;SDS011;20744;50.938;7.286;2024-01-15T10:14:15;31.33;;;16.23;;
34497;SDS011;20744;50.938;7.286;2024-01-15T10:16:42;24.85;;;15.00;;
34497;SDS011;20744;50.938;7.286;2024-01-15T10:19:10;25.60;;;14.65;;
34497;SDS011;20744;50.938;7.286;2024-01-15T10:21:37;25.83;;;14.43;;
34497;SDS011;20744;50.938;7.286;2024-01-15T10:24:04;21.90;;;13.38;;
34497;SDS011;20744;50.938;7.286;2024-01-15T10:26:33;21.85;;;13.30;;
34497;SDS011;20744;50.938;7.286;2024-01-15T10:29:01;21.05;;;12.05;;
34497;SDS011;20744;50.938;7.286;2024-01-15T10:31:28;17.30;;;11.45;;
34497;SDS011;20744;50.938;7.286;2024-01-15T10:33:58;17.23;;;10.13;;
34497;SDS011;20744;50.938;7.286;2024-01-15T10:36:38;16.70;;;11.35;;
34497;SDS011;20744;50.938;7.286;2024-01-15T10:39:06;16.08;;;10.90;;
34497;SDS011;20744;50.938;7.286;2024-01-15T10:41:35;15.95;;;10.93;;
34497;SDS011;20744;50.938;7.286;2024-01-15T10:44:02;15.95;;;9.80;;
34497;SDS011;20744;50.938;7.286;2024-01-15T10:46:31;13.60;;;9.88;;
34497;SDS011;20744;50.938;7.286;2024-01-15T10:48:59;18.27;;;10.18;;
34497;SDS011;20744;50.938;7.286;2024-01-15T10:51:27;14.65;;;10.13;;
34497;SDS011;20744;50.938;7.286;2024-01-15T10:53:55;12.63;;;8.80;;
34497;SDS011;20744;50.938;7.286;2024-01-15T10:56:23;13.30;;;9.20;;
34497;SDS011;20744;50.938;7.286;2024-01-15T10:58:52;15.63;;;10.35;;
34497;SDS011;20744;50.938;7.286;2024-01-15T11:01:21;14.52;;;9.60;;
34497;SDS011;20744;50.938;7.286;2024-01-15T11:03:48;14.85;;;10.35;;
34497;SDS011;20744;50.938;7.286;2024-01-15T11:06:16;13.57;;;9.88;;
34497;SDS011;20744;50.938;7.286;2024-01-15T11:08:44;14.70;;;9.18;;
34497;SDS011;20744;50.938;7.286;2024-01-15T11:11:12;15.73;;;10.20;;
34497;SDS011;20744;50.938;7.286;2024-01-15T11:13:39;17.25;;;9.23;;
34497;SDS011;20744;50.938;7.286;2024-01-15T11:16:10;12.38;;;8.95;;
34497;SDS011;20744;50.938;7.286;2024-01-15T11:18:39;13.32;;;10.07;;
34497;SDS011;20744;50.938;7.286;2024-01-15T11:21:19;13.77;;;9.32;;
34497;SDS011;20744;50.938;7.286;2024-01-15T11:23:47;14.27;;;9.38;;
34497;SDS011;20744;50.938;7.286;2024-01-15T11:26:27;11.73;;;8.13;;
34497;SDS011;20744;50.938;7.286;2024-01-15T11:28:55;10.13;;;7.45;;
34497;SDS011;20744;50.938;7.286;2024-01-15T11:31:27;10.85;;;7.47;;
34497;SDS011;20744;50.938;7.286;2024-01-15T11:33:54;10.57;;;7.55;;
34497;SDS011;20744;50.938;7.286;2024-01-15T11:36:21;11.02;;;7.75;;
34497;SDS011;20744;50.938;7.286;2024-01-15T11:38:49;14.30;;;7.22;;
34497;SDS011;20744;50.938;7.286;2024-01-15T11:41:16;10.65;;;6.22;;
34497;SDS011;20744;50.938;7.286;2024-01-15T11:43:43;8.82;;;6.15;;
34497;SDS011;20744;50.938;7.286;2024-01-15T11:46:11;7.90;;;6.18;;
34497;SDS011;20744;50.938;7.286;2024-01-15T11:48:46;8.75;;;6.25;;
34497;SDS011;20744;50.938;7.286;2024-01-15T11:51:16;10.88;;;6.35;;
34497;SDS011;20744;50.938;7.286;2024-01-15T11:53:46;9.88;;;5.82;;
34497;SDS011;20744;50.938;7.286;2024-01-15T11:56:16;8.68;;;6.47;;
34497;SDS011;20744;50.938;7.286;2024-01-15T11:58:44;7.13;;;5.90;;
34497;SDS011;20744;50.938;7.286;2024-01-15T12:01:12;9.98;;;6.63;;
34497;SDS011;20744;50.938;7.286;2024-01-15T12:03:39;11.63;;;6.30;;
34497;SDS011;20744;50.938;7.286;2024-01-15T12:06:08;9.57;;;5.13;;
34497;SDS011;20744;50.938;7.286;2024-01-15T12:08:37;9.68;;;5.25;;
34497;SDS011;20744;50.938;7.286;2024-01-15T12:11:05;7.22;;;5.22;;
34497;SDS011;20744;50.938;7.286;2024-01-15T12:13:33;9.00;;;5.57;;
34497;SDS011;20744;50.938;7.286;2024-01-15T12:16:01;10.93;;;5.85;;
34497;SDS011;20744;50.938;7.286;2024-01-15T12:18:29;11.25;;;5.40;;
34497;SDS011;20744;50.938;7.286;2024-01-15T12:20:58;8.30;;;5.30;;
34497;SDS011;20744;50.938;7.286;2024-01-15T12:23:27;8.52;;;6.30;;
34497;SDS011;20744;50.938;7.286;2024-01-15T12:25:54;10.48;;;6.70;;
34497;SDS011;20744;50.938;7.286;2024-01-15T12:28:22;10.57;;;5.78;;
34497;SDS011;20744;50.938;7.286;2024-01-15T12:30:49;7.63;;;6.20;;
34497;SDS011;20744;50.938;7.286;2024-01-15T12:33:17;12.55;;;6.55;;
34497;SDS011;20744;50.938;7.286;2024-01-15T12:35:46;10.00;;;7.00;;
34497;SDS011;20744;50.938;7.286;2024-01-15T12:38:13;13.38;;;8.23;;
34497;SDS011;20744;50.938;7.286;2024-01-15T12:40:43;10.50;;;7.45;;
34497;SDS011;20744;50.938;7.286;2024-01-15T12:43:12;12.15;;;7.57;;
34497;SDS011;20744;50.938;7.286;2024-01-15T12:45:40;12.60;;;8.30;;
34497;SDS011;20744;50.938;7.286;2024-01-15T12:48:08;12.75;;;7.85;;
34497;SDS011;20744;50.938;7.286;2024-01-15T12:50:35;14.25;;;8.40;;
34497;SDS011;20744;50.938;7.286;2024-01-15T12:53:03;9.88;;;7.68;;
34497;SDS011;20744;50.938;7.286;2024-01-15T12:55:30;11.48;;;7.45;;
34497;SDS011;20744;50.938;7.286;2024-01-15T12:58:00;9.32;;;6.88;;
34497;SDS011;20744;50.938;7.286;2024-01-15T13:00:28;14.55;;;7.80;;
34497;SDS011;20744;50.938;7.286;2024-01-15T13:02:55;12.57;;;7.78;;
34497;SDS011;20744;50.938;7.286;2024-01-15T13:05:23;11.88;;;7.40;;
34497;SDS011;20744;50.938;7.286;2024-01-15T13:07:52;18.67;;;7.88;;
34497;SDS011;20744;50.938;7.286;2024-01-15T13:10:19;15.85;;;8.63;;
34497;SDS011;20744;50.938;7.286;2024-01-15T13:12:46;16.75;;;8.63;;
34497;SDS011;20744;50.938;7.286;2024-01-15T13:15:15;14.55;;;7.78;;
34497;SDS011;20744;50.938;7.286;2024-01-15T13:17:43;17.83;;;8.40;;
34497;SDS011;20744;50.938;7.286;2024-01-15T13:20:11;19.40;;;7.65;;
34497;SDS011;20744;50.938;7.286;2024-01-15T13:22:38;12.20;;;7.65;;
34497;SDS011;20744;50.938;7.286;2024-01-15T13:25:08;18.55;;;7.50;;
34497;SDS011;20744;50.938;7.286;2024-01-15T13:27:36;17.50;;;8.82;;
34497;SDS011;20744;50.938;7.286;2024-01-15T13:30:04;14.98;;;8.10;;
34497;SDS011;20744;50.938;7.286;2024-01-15T13:32:34;17.35;;;8.02;;
34497;SDS011;20744;50.938;7.286;2024-01-15T13:35:01;17.90;;;7.07;;
34497;SDS011;20744;50.938;7.286;2024-01-15T13:37:30;16.15;;;6.60;;
34497;SDS011;20744;50.938;7.286;2024-01-15T13:39:58;25.80;;;7.32;;
34497;SDS011;20744;50.938;7.286;2024-01-15T13:42:25;18.90;;;7.65;;
34497;SDS011;20744;50.938;7.286;2024-01-15T13:44:53;20.85;;;7.22;;
34497;SDS011;20744;50.938;7.286;2024-01-15T13:47:22;14.32;;;6.05;;
34497;SDS011;20744;50.938;7.286;2024-01-15T13:49:51;14.32;;;6.65;;
34497;SDS011;20744;50.938;7.286;2024-01-15T13:52:18;12.85;;;6.97;;
34497;SDS011;20744;50.938;7.286;2024-01-15T13:54:46;13.68;;;6.43;;
34497;SDS011;20744;50.938;7.286;2024-01-15T13:57:13;11.93;;;6.25;;
34497;SDS011;20744;50.938;7.286;2024-01-15T13:59:40;13.52;;;6.25;;
34497;SDS011;20744;50.938;7.286;2024-01-15T14:02:08;10.40;;;6.03;;
34497;SDS011;20744;50.938;7.286;2024-01-15T14:04:35;15.30;;;6.25;;
34497;SDS011;20744;50.938;7.286;2024-01-15T14:07:07;11.77;;;6.22;;
34497;SDS011;20744;50.938;7.286;2024-01-15T14:09:34;18.40;;;6.35;;
34497;SDS011;20744;50.938;7.286;2024-01-15T14:12:02;18.27;;;5.78;;
34497;SDS011;20744;50.938;7.286;2024-01-15T14:14:30;13.70;;;5.93;;
34497;SDS011;20744;50.938;7.286;2024-01-15T14:16:58;9.18;;;4.78;;
34497;SDS011;20744;50.938;7.286;2024-01-15T14:19:25;14.68;;;5.93;;
34497;SDS011;20744;50.938;7.286;2024-01-15T14:21:52;16.50;;;6.15;;
34497;SDS011;20744;50.938;7.286;2024-01-15T14:24:21;11.68;;;5.68;;
34497;SDS011;20744;50.938;7.286;2024-01-15T14:26:49;12.68;;;5.32;;
34497;SDS011;20744;50.938;7.286;2024-01-15T14:29:16;10.30;;;5.60;;